sensor_id;sensor_type;location;lat;lon;timestamp;temperature;humidity
52159;DHT22;38145;53.182;6.284;2022-08-06T00:00:49;14.10;99.90
52159;DHT22;38145;53.182;6.284;2022-08-06T00:03:15;14.00;99.90
52159;DHT22;38145;53.182;6.284;2022-08-06T00:05:42;14.00;99.90
52159;DHT22;38145;53.182;6.284;2022-08-06T00:08:10;13.90;99.90
52159;DHT22;38145;53.182;6.284;2022-08-06T00:10:42;13.80;99.90
52159;DHT22;38145;53.182;6.284;2022-08-06T00:13:10;13.80;99.90
52159;DHT22;38145;53.182;6.284;2022-08-06T00:15:36;13.80;99.90
52159;DHT22;38145;53.182;6.284;2022-08-06T00:18:03;13.80;99.90
52159;DHT22;38145;53.182;6.284;2022-08-06T00:20:29;13.70;99.90
52159;DHT22;38145;53.182;6.284;2022-08-06T00:22:57;13.70;99.90
52159;DHT22;38145;53.182;6.284;2022-08-06T00:25:25;13.60;99.90
52159;DHT22;38145;53.182;6.284;2022-08-06T00:27:51;13.60;99.90
52159;DHT22;38145;53.182;6.284;2022-08-06T00:30:17;13.60;99.90
52159;DHT22;38145;53.182;6.284;2022-08-06T00:32:44;13.60;99.90
52159;DHT22;38145;53.182;6.284;2022-08-06T00:35:11;13.50;99.90
52159;DHT22;38145;53.182;6.284;2022-08-06T00:37:38;13.50;99.90
52159;DHT22;38145;53.182;6.284;2022-08-06T00:40:07;13.50;99.90
52159;DHT22;38145;53.182;6.284;2022-08-06T00:42:35;13.50;99.90
52159;DHT22;38145;53.182;6.284;2022-08-06T00:45:03;13.40;99.90
52159;DHT22;38145;53.182;6.284;2022-08-06T00:47:30;13.40;99.90
52159;DHT22;38145;53.182;6.284;2022-08-06T00:50:03;13.40;99.90
52159;DHT22;38145;53.182;6.284;2022-08-06T00:52:31;13.40;99.90
52159;DHT22;38145;53.182;6.284;2022-08-06T00:54:58;13.40;99.90
52159;DHT22;38145;53.182;6.284;2022-08-06T00:57:24;13.30;99.90
52159;DHT22;38145;53.182;6.284;2022-08-06T00:59:51;13.30;99.90
52159;DHT22;38145;53.182;6.284;2022-08-06T01:02:18;13.30;99.90
52159;DHT22;38145;53.182;6.284;2022-08-06T01:04:44;13.30;99.90
52159;DHT22;38145;53.182;6.284;2022-08-06T01:07:11;13.30;99.90
52159;DHT22;38145;53.182;6.284;2022-08-06T01:09:37;13.20;99.90
52159;DHT22;38145;53.182;6.284;2022-08-06T01:12:05;13.20;99.90
52159;DHT22;38145;53.182;6.284;2022-08-06T01:14:32;13.10;99.90
52159;DHT22;38145;53.182;6.284;2022-08-06T01:17:02;13.00;99.90
52159;DHT22;38145;53.182;6.284;2022-08-06T01:19:46;13.00;99.90
52159;DHT22;38145;53.182;6.284;2022-08-06T01:22:35;12.90;99.90
52159;DHT22;38145;53.182;6.284;2022-08-06T01:28:01;12.90;99.90
52159;DHT22;38145;53.182;6.284;2022-08-06T01:30:40;12.90;99.90
52159;DHT22;38145;53.182;6.284;2022-08-06T01:33:18;12.90;99.90
52159;DHT22;38145;53.182;6.284;2022-08-06T01:35:54;12.80;99.90
52159;DHT22;38145;53.182;6.284;2022-08-06T01:38:27;12.80;99.90
52159;DHT22;38145;53.182;6.284;2022-08-06T01:40:57;12.80;99.90
52159;DHT22;38145;53.182;6.284;2022-08-06T01:43:25;12.80;99.90
52159;DHT22;38145;53.182;6.284;2022-08-06T01:45:53;12.70;99.90
52159;DHT22;38145;53.182;6.284;2022-08-06T01:48:26;12.60;99.90
52159;DHT22;38145;53.182;6.284;2022-08-06T01:50:57;12.60;99.90
52159;DHT22;38145;53.182;6.284;2022-08-06T01:53:29;12.60;99.90
52159;DHT22;38145;53.182;6.284;2022-08-06T01:56:03;12.60;99.90
52159;DHT22;38145;53.182;6.284;2022-08-06T01:58:38;12.60;99.90
52159;DHT22;38145;53.182;6.284;2022-08-06T02:01:10;12.50;99.90
52159;DHT22;38145;53.182;6.284;2022-08-06T02:03:42;12.40;99.90
52159;DHT22;38145;53.182;6.284;2022-08-06T02:06:15;12.30;99.90
52159;DHT22;38145;53.182;6.284;2022-08-06T02:08:43;12.20;99.90
52159;DHT22;38145;53.182;6.284;2022-08-06T02:11:10;12.20;99.90
52159;DHT22;38145;53.182;6.284;2022-08-06T02:13:40;12.20;99.90
52159;DHT22;38145;53.182;6.284;2022-08-06T02:16:09;12.20;99.90
52159;DHT22;38145;53.182;6.284;2022-08-06T02:18:40;12.20;99.90
52159;DHT22;38145;53.182;6.284;2022-08-06T02:21:15;12.20;99.90
52159;DHT22;38145;53.182;6.284;2022-08-06T02:23:45;12.20;99.90
52159;DHT22;38145;53.182;6.284;2022-08-06T02:26:17;12.20;99.90
52159;DHT22;38145;53.182;6.284;2022-08-06T02:28:46;12.10;99.90
52159;DHT22;38145;53.182;6.284;2022-08-06T02:31:13;12.10;99.90
52159;DHT22;38145;53.182;6.284;2022-08-06T02:33:39;12.00;99.90
52159;DHT22;38145;53.182;6.284;2022-08-06T02:36:19;12.00;99.90
52159;DHT22;38145;53.182;6.284;2022-08-06T02:38:52;12.00;99.90
52159;DHT22;38145;53.182;6.284;2022-08-06T02:41:27;12.00;99.90
52159;DHT22;38145;53.182;6.284;2022-08-06T02:44:10;12.00;99.90
52159;DHT22;38145;53.182;6.284;2022-08-06T02:46:43;11.90;99.90
52159;DHT22;38145;53.182;6.284;2022-08-06T02:49:16;11.80;99.90
52159;DHT22;38145;53.182;6.284;2022-08-06T02:51:48;11.90;99.90
52159;DHT22;38145;53.182;6.284;2022-08-06T02:54:22;11.80;99.90
52159;DHT22;38145;53.182;6.284;2022-08-06T02:56:50;11.70;99.90
52159;DHT22;38145;53.182;6.284;2022-08-06T02:59:21;11.70;99.90
52159;DHT22;38145;53.182;6.284;2022-08-06T03:01:55;11.70;99.90
52159;DHT22;38145;53.182;6.284;2022-08-06T03:04:25;11.60;99.90
52159;DHT22;38145;53.182;6.284;2022-08-06T03:06:53;11.60;99.90
52159;DHT22;38145;53.182;6.284;2022-08-06T03:09:22;11.60;99.90
52159;DHT22;38145;53.182;6.284;2022-08-06T03:11:50;11.60;99.90
52159;DHT22;38145;53.182;6.284;2022-08-06T03:14:21;11.60;99.90
52159;DHT22;38145;53.182;6.284;2022-08-06T03:16:48;11.60;99.90
52159;DHT22;38145;53.182;6.284;2022-08-06T03:19:18;11.60;99.90
52159;DHT22;38145;53.182;6.284;2022-08-06T03:21:49;11.60;99.90
52159;DHT22;38145;53.182;6.284;2022-08-06T03:24:17;11.70;99.90
52159;DHT22;38145;53.182;6.284;2022-08-06T03:26:45;11.70;99.90
52159;DHT22;38145;53.182;6.284;2022-08-06T03:29:15;11.70;99.90
52159;DHT22;38145;53.182;6.284;2022-08-06T03:31:43;11.70;99.90
52159;DHT22;38145;53.182;6.284;2022-08-06T03:34:10;11.80;99.90
52159;DHT22;38145;53.182;6.284;2022-08-06T03:36:41;11.80;99.90
52159;DHT22;38145;53.182;6.284;2022-08-06T03:39:08;11.80;99.90
52159;DHT22;38145;53.182;6.284;2022-08-06T03:41:37;11.70;99.90
52159;DHT22;38145;53.182;6.284;2022-08-06T03:44:06;11.70;99.90
52159;DHT22;38145;53.182;6.284;2022-08-06T03:46:38;11.70;99.90
52159;DHT22;38145;53.182;6.284;2022-08-06T03:49:16;11.60;99.90
52159;DHT22;38145;53.182;6.284;2022-08-06T03:51:45;11.50;99.90
52159;DHT22;38145;53.182;6.284;2022-08-06T03:54:17;11.60;99.90
52159;DHT22;38145;53.182;6.284;2022-08-06T03:56:44;11.50;99.90
52159;DHT22;38145;53.182;6.284;2022-08-06T03:59:12;11.40;99.90
52159;DHT22;38145;53.182;6.284;2022-08-06T04:01:43;11.30;99.90
52159;DHT22;38145;53.182;6.284;2022-08-06T04:04:11;11.20;99.90
52159;DHT22;38145;53.182;6.284;2022-08-06T04:06:43;11.20;99.90
52159;DHT22;38145;53.182;6.284;2022-08-06T04:09:11;11.20;99.90
52159;DHT22;38145;53.182;6.284;2022-08-06T04:11:38;11.20;99.90
52159;DHT22;38145;53.182;6.284;2022-08-06T04:14:05;11.20;99.90
52159;DHT22;38145;53.182;6.284;2022-08-06T04:16:31;11.30;99.90
52159;DHT22;38145;53.182;6.284;2022-08-06T04:18:58;11.30;99.90
52159;DHT22;38145;53.182;6.284;2022-08-06T04:21:25;11.40;99.90
52159;DHT22;38145;53.182;6.284;2022-08-06T04:23:52;11.40;99.90
52159;DHT22;38145;53.182;6.284;2022-08-06T04:26:23;11.50;99.90
52159;DHT22;38145;53.182;6.284;2022-08-06T04:28:52;11.40;99.90
52159;DHT22;38145;53.182;6.284;2022-08-06T04:31:20;11.50;99.90
52159;DHT22;38145;53.182;6.284;2022-08-06T04:33:53;11.50;99.90
52159;DHT22;38145;53.182;6.284;2022-08-06T04:36:23;11.50;99.90
52159;DHT22;38145;53.182;6.284;2022-08-06T04:38:50;11.60;99.90
52159;DHT22;38145;53.182;6.284;2022-08-06T04:41:17;11.60;99.90
52159;DHT22;38145;53.182;6.284;2022-08-06T04:43:45;11.50;99.90
52159;DHT22;38145;53.182;6.284;2022-08-06T04:46:12;11.60;99.90
52159;DHT22;38145;53.182;6.284;2022-08-06T04:48:40;11.60;99.90
52159;DHT22;38145;53.182;6.284;2022-08-06T04:51:07;11.60;99.90
52159;DHT22;38145;53.182;6.284;2022-08-06T04:53:39;11.60;99.90
52159;DHT22;38145;53.182;6.284;2022-08-06T04:56:08;11.60;99.90
52159;DHT22;38145;53.182;6.284;2022-08-06T04:58:35;11.60;99.90
52159;DHT22;38145;53.182;6.284;2022-08-06T05:01:02;11.60;99.90
52159;DHT22;38145;53.182;6.284;2022-08-06T05:03:36;11.50;99.90
52159;DHT22;38145;53.182;6.284;2022-08-06T05:06:22;11.50;99.90
52159;DHT22;38145;53.182;6.284;2022-08-06T05:09:01;11.60;99.90
52159;DHT22;38145;53.182;6.284;2022-08-06T05:11:33;11.70;99.90
52159;DHT22;38145;53.182;6.284;2022-08-06T05:14:05;11.80;99.90
52159;DHT22;38145;53.182;6.284;2022-08-06T05:16:38;11.90;99.90
52159;DHT22;38145;53.182;6.284;2022-08-06T05:19:15;12.00;99.90
52159;DHT22;38145;53.182;6.284;2022-08-06T05:21:45;12.10;99.90
52159;DHT22;38145;53.182;6.284;2022-08-06T05:24:13;12.10;99.90
52159;DHT22;38145;53.182;6.284;2022-08-06T05:26:39;12.20;99.90
52159;DHT22;38145;53.182;6.284;2022-08-06T05:29:06;12.20;99.90
52159;DHT22;38145;53.182;6.284;2022-08-06T05:31:38;12.30;99.90
52159;DHT22;38145;53.182;6.284;2022-08-06T05:34:09;12.30;99.90
52159;DHT22;38145;53.182;6.284;2022-08-06T05:36:37;12.40;99.90
52159;DHT22;38145;53.182;6.284;2022-08-06T05:39:04;12.40;99.90
52159;DHT22;38145;53.182;6.284;2022-08-06T05:41:30;12.50;99.90
52159;DHT22;38145;53.182;6.284;2022-08-06T05:43:57;12.50;99.90
52159;DHT22;38145;53.182;6.284;2022-08-06T05:46:25;12.60;99.90
52159;DHT22;38145;53.182;6.284;2022-08-06T05:51:52;12.90;99.90
52159;DHT22;38145;53.182;6.284;2022-08-06T05:54:31;13.00;99.90
52159;DHT22;38145;53.182;6.284;2022-08-06T05:57:03;13.10;99.90
52159;DHT22;38145;53.182;6.284;2022-08-06T05:59:35;13.30;99.90
52159;DHT22;38145;53.182;6.284;2022-08-06T06:02:03;13.40;99.90
52159;DHT22;38145;53.182;6.284;2022-08-06T06:04:31;13.50;99.90
52159;DHT22;38145;53.182;6.284;2022-08-06T06:06:58;13.60;99.90
52159;DHT22;38145;53.182;6.284;2022-08-06T06:09:28;13.70;99.90
52159;DHT22;38145;53.182;6.284;2022-08-06T06:11:55;13.90;99.90
52159;DHT22;38145;53.182;6.284;2022-08-06T06:14:33;14.00;99.90
52159;DHT22;38145;53.182;6.284;2022-08-06T06:17:23;14.00;99.90
52159;DHT22;38145;53.182;6.284;2022-08-06T06:23:00;14.00;99.90
52159;DHT22;38145;53.182;6.284;2022-08-06T06:25:32;14.10;99.90
52159;DHT22;38145;53.182;6.284;2022-08-06T06:28:24;14.10;99.90
52159;DHT22;38145;53.182;6.284;2022-08-06T06:31:07;14.10;99.90
52159;DHT22;38145;53.182;6.284;2022-08-06T06:33:51;14.20;99.90
52159;DHT22;38145;53.182;6.284;2022-08-06T06:36:44;14.20;99.90
52159;DHT22;38145;53.182;6.284;2022-08-06T06:42:06;14.40;99.90
52159;DHT22;38145;53.182;6.284;2022-08-06T06:44:44;14.40;99.90
52159;DHT22;38145;53.182;6.284;2022-08-06T06:47:32;14.60;99.90
52159;DHT22;38145;53.182;6.284;2022-08-06T06:50:05;14.70;99.90
52159;DHT22;38145;53.182;6.284;2022-08-06T06:52:42;14.90;99.90
52159;DHT22;38145;53.182;6.284;2022-08-06T06:55:13;15.10;99.90
52159;DHT22;38145;53.182;6.284;2022-08-06T06:57:48;15.20;99.90
52159;DHT22;38145;53.182;6.284;2022-08-06T07:00:16;15.30;99.90
52159;DHT22;38145;53.182;6.284;2022-08-06T07:02:45;15.40;99.90
52159;DHT22;38145;53.182;6.284;2022-08-06T07:05:16;15.50;99.90
52159;DHT22;38145;53.182;6.284;2022-08-06T07:07:46;15.70;99.90
52159;DHT22;38145;53.182;6.284;2022-08-06T07:10:13;15.90;99.90
52159;DHT22;38145;53.182;6.284;2022-08-06T07:12:42;16.10;99.90
52159;DHT22;38145;53.182;6.284;2022-08-06T07:15:11;16.30;99.90
52159;DHT22;38145;53.182;6.284;2022-08-06T07:17:39;16.70;99.90
52159;DHT22;38145;53.182;6.284;2022-08-06T07:20:07;17.10;99.90
52159;DHT22;38145;53.182;6.284;2022-08-06T07:22:36;17.30;99.90
52159;DHT22;38145;53.182;6.284;2022-08-06T07:25:05;17.50;99.90
52159;DHT22;38145;53.182;6.284;2022-08-06T07:27:39;17.60;99.90
52159;DHT22;38145;53.182;6.284;2022-08-06T07:30:07;17.70;99.90
52159;DHT22;38145;53.182;6.284;2022-08-06T07:32:34;17.70;99.90
52159;DHT22;38145;53.182;6.284;2022-08-06T07:35:04;17.70;99.90
52159;DHT22;38145;53.182;6.284;2022-08-06T07:37:31;17.70;99.90
52159;DHT22;38145;53.182;6.284;2022-08-06T07:40:00;17.70;99.90
52159;DHT22;38145;53.182;6.284;2022-08-06T07:42:29;18.00;99.90
52159;DHT22;38145;53.182;6.284;2022-08-06T07:45:00;18.40;99.90
52159;DHT22;38145;53.182;6.284;2022-08-06T07:47:37;18.90;99.90
52159;DHT22;38145;53.182;6.284;2022-08-06T07:50:06;19.20;99.90
52159;DHT22;38145;53.182;6.284;2022-08-06T07:52:32;19.50;99.90
52159;DHT22;38145;53.182;6.284;2022-08-06T07:54:59;19.60;99.90
52159;DHT22;38145;53.182;6.284;2022-08-06T07:57:30;20.00;99.90
52159;DHT22;38145;53.182;6.284;2022-08-06T07:59:59;20.20;99.90
52159;DHT22;38145;53.182;6.284;2022-08-06T08:02:25;20.40;99.90
52159;DHT22;38145;53.182;6.284;2022-08-06T08:04:52;20.40;99.90
52159;DHT22;38145;53.182;6.284;2022-08-06T08:07:38;20.40;99.90
52159;DHT22;38145;53.182;6.284;2022-08-06T08:10:06;20.70;99.90
52159;DHT22;38145;53.182;6.284;2022-08-06T08:12:36;21.00;99.90
52159;DHT22;38145;53.182;6.284;2022-08-06T08:15:05;21.00;99.90
52159;DHT22;38145;53.182;6.284;2022-08-06T08:17:33;21.00;99.90
52159;DHT22;38145;53.182;6.284;2022-08-06T08:20:04;20.80;99.90
52159;DHT22;38145;53.182;6.284;2022-08-06T08:22:30;20.50;99.90
52159;DHT22;38145;53.182;6.284;2022-08-06T08:24:58;20.20;99.90
52159;DHT22;38145;53.182;6.284;2022-08-06T08:27:24;19.80;99.90
52159;DHT22;38145;53.182;6.284;2022-08-06T08:29:51;19.30;99.90
52159;DHT22;38145;53.182;6.284;2022-08-06T08:32:18;19.10;99.90
52159;DHT22;38145;53.182;6.284;2022-08-06T08:34:51;18.80;99.90
52159;DHT22;38145;53.182;6.284;2022-08-06T08:37:18;18.50;99.90
52159;DHT22;38145;53.182;6.284;2022-08-06T08:39:45;18.30;99.90
52159;DHT22;38145;53.182;6.284;2022-08-06T08:42:17;18.10;99.90
52159;DHT22;38145;53.182;6.284;2022-08-06T08:44:44;17.90;99.90
52159;DHT22;38145;53.182;6.284;2022-08-06T08:47:13;17.80;99.90
52159;DHT22;38145;53.182;6.284;2022-08-06T08:49:47;17.60;99.90
52159;DHT22;38145;53.182;6.284;2022-08-06T08:52:23;17.40;99.90
52159;DHT22;38145;53.182;6.284;2022-08-06T08:54:59;17.30;99.90
52159;DHT22;38145;53.182;6.284;2022-08-06T08:57:32;17.30;99.90
52159;DHT22;38145;53.182;6.284;2022-08-06T09:00:08;17.30;99.90
52159;DHT22;38145;53.182;6.284;2022-08-06T09:02:37;17.30;99.90
52159;DHT22;38145;53.182;6.284;2022-08-06T09:05:06;17.80;99.90
52159;DHT22;38145;53.182;6.284;2022-08-06T09:07:33;18.40;99.90
52159;DHT22;38145;53.182;6.284;2022-08-06T09:10:01;19.10;99.90
52159;DHT22;38145;53.182;6.284;2022-08-06T09:12:28;19.60;99.90
52159;DHT22;38145;53.182;6.284;2022-08-06T09:14:55;19.80;99.90
52159;DHT22;38145;53.182;6.284;2022-08-06T09:17:21;19.50;99.90
52159;DHT22;38145;53.182;6.284;2022-08-06T09:19:49;19.20;99.90
52159;DHT22;38145;53.182;6.284;2022-08-06T09:22:16;18.90;99.90
52159;DHT22;38145;53.182;6.284;2022-08-06T09:24:42;18.70;99.90
52159;DHT22;38145;53.182;6.284;2022-08-06T09:27:14;18.40;99.90
52159;DHT22;38145;53.182;6.284;2022-08-06T09:29:51;18.30;99.90
52159;DHT22;38145;53.182;6.284;2022-08-06T09:32:39;18.20;99.90
52159;DHT22;38145;53.182;6.284;2022-08-06T09:35:27;18.10;99.90
52159;DHT22;38145;53.182;6.284;2022-08-06T09:38:04;18.10;99.90
52159;DHT22;38145;53.182;6.284;2022-08-06T09:40:32;18.20;99.90
52159;DHT22;38145;53.182;6.284;2022-08-06T09:43:00;18.40;99.90
52159;DHT22;38145;53.182;6.284;2022-08-06T09:45:26;18.70;99.90
52159;DHT22;38145;53.182;6.284;2022-08-06T09:48:04;19.30;99.90
52159;DHT22;38145;53.182;6.284;2022-08-06T09:50:39;19.90;99.90
52159;DHT22;38145;53.182;6.284;2022-08-06T09:53:07;20.20;99.90
52159;DHT22;38145;53.182;6.284;2022-08-06T09:55:34;20.10;99.90
52159;DHT22;38145;53.182;6.284;2022-08-06T09:58:03;19.70;99.90
52159;DHT22;38145;53.182;6.284;2022-08-06T10:00:34;20.00;99.90
52159;DHT22;38145;53.182;6.284;2022-08-06T10:03:04;20.50;99.90
52159;DHT22;38145;53.182;6.284;2022-08-06T10:05:31;20.80;99.90
52159;DHT22;38145;53.182;6.284;2022-08-06T10:08:07;21.40;99.90
52159;DHT22;38145;53.182;6.284;2022-08-06T10:10:41;21.10;99.90
52159;DHT22;38145;53.182;6.284;2022-08-06T10:13:14;20.80;99.90
52159;DHT22;38145;53.182;6.284;2022-08-06T10:15:43;20.30;99.90
52159;DHT22;38145;53.182;6.284;2022-08-06T10:18:29;20.10;99.90
52159;DHT22;38145;53.182;6.284;2022-08-06T10:21:05;20.30;99.90
52159;DHT22;38145;53.182;6.284;2022-08-06T10:23:35;20.40;99.90
52159;DHT22;38145;53.182;6.284;2022-08-06T10:26:04;20.40;99.90
52159;DHT22;38145;53.182;6.284;2022-08-06T10:28:35;20.50;99.90
52159;DHT22;38145;53.182;6.284;2022-08-06T10:31:04;20.90;99.90
52159;DHT22;38145;53.182;6.284;2022-08-06T10:33:33;21.00;99.90
52159;DHT22;38145;53.182;6.284;2022-08-06T10:36:04;21.00;99.90
52159;DHT22;38145;53.182;6.284;2022-08-06T10:38:35;21.00;99.90
52159;DHT22;38145;53.182;6.284;2022-08-06T10:41:07;20.90;99.90
52159;DHT22;38145;53.182;6.284;2022-08-06T10:43:36;20.70;99.90
52159;DHT22;38145;53.182;6.284;2022-08-06T10:46:07;20.90;99.90
52159;DHT22;38145;53.182;6.284;2022-08-06T10:48:36;20.90;99.90
52159;DHT22;38145;53.182;6.284;2022-08-06T10:51:06;21.30;99.90
52159;DHT22;38145;53.182;6.284;2022-08-06T10:53:34;21.50;99.90
52159;DHT22;38145;53.182;6.284;2022-08-06T10:56:03;21.20;99.90
52159;DHT22;38145;53.182;6.284;2022-08-06T10:58:31;20.70;97.40
52159;DHT22;38145;53.182;6.284;2022-08-06T11:01:04;20.50;99.90
52159;DHT22;38145;53.182;6.284;2022-08-06T11:06:32;20.60;96.70
52159;DHT22;38145;53.182;6.284;2022-08-06T11:09:20;20.90;98.10
52159;DHT22;38145;53.182;6.284;2022-08-06T11:11:56;21.10;96.80
52159;DHT22;38145;53.182;6.284;2022-08-06T11:14:26;21.20;97.80
52159;DHT22;38145;53.182;6.284;2022-08-06T11:16:56;21.30;96.80
52159;DHT22;38145;53.182;6.284;2022-08-06T11:19:45;21.30;96.30
52159;DHT22;38145;53.182;6.284;2022-08-06T11:22:39;21.40;97.80
52159;DHT22;38145;53.182;6.284;2022-08-06T11:25:08;21.60;96.50
52159;DHT22;38145;53.182;6.284;2022-08-06T11:27:53;21.70;96.50
52159;DHT22;38145;53.182;6.284;2022-08-06T11:30:39;21.10;94.50
52159;DHT22;38145;53.182;6.284;2022-08-06T11:33:06;20.80;96.00
52159;DHT22;38145;53.182;6.284;2022-08-06T11:38:01;20.40;99.50
52159;DHT22;38145;53.182;6.284;2022-08-06T11:40:27;20.50;99.90
52159;DHT22;38145;53.182;6.284;2022-08-06T11:42:54;20.40;99.90
52159;DHT22;38145;53.182;6.284;2022-08-06T11:45:21;20.50;99.90
52159;DHT22;38145;53.182;6.284;2022-08-06T11:48:07;20.80;98.40
52159;DHT22;38145;53.182;6.284;2022-08-06T11:50:33;20.90;96.80
52159;DHT22;38145;53.182;6.284;2022-08-06T11:52:59;20.80;95.50
52159;DHT22;38145;53.182;6.284;2022-08-06T11:55:26;20.90;95.40
52159;DHT22;38145;53.182;6.284;2022-08-06T12:00:58;20.90;94.40
52159;DHT22;38145;53.182;6.284;2022-08-06T12:03:39;20.60;94.80
52159;DHT22;38145;53.182;6.284;2022-08-06T12:06:20;20.80;97.00
52159;DHT22;38145;53.182;6.284;2022-08-06T12:09:06;21.00;94.50
52159;DHT22;38145;53.182;6.284;2022-08-06T12:11:32;21.10;93.10
52159;DHT22;38145;53.182;6.284;2022-08-06T12:14:01;21.10;96.60
52159;DHT22;38145;53.182;6.284;2022-08-06T12:16:31;21.00;96.10
52159;DHT22;38145;53.182;6.284;2022-08-06T12:19:01;20.90;94.40
52159;DHT22;38145;53.182;6.284;2022-08-06T12:21:28;20.60;96.80
52159;DHT22;38145;53.182;6.284;2022-08-06T12:23:55;20.50;99.10
52159;DHT22;38145;53.182;6.284;2022-08-06T12:26:22;20.50;99.70
52159;DHT22;38145;53.182;6.284;2022-08-06T12:28:50;20.70;99.10
52159;DHT22;38145;53.182;6.284;2022-08-06T12:31:27;20.80;99.90
52159;DHT22;38145;53.182;6.284;2022-08-06T12:33:54;20.60;99.90
52159;DHT22;38145;53.182;6.284;2022-08-06T12:36:20;20.50;98.30
52159;DHT22;38145;53.182;6.284;2022-08-06T12:38:58;20.40;98.60
52159;DHT22;38145;53.182;6.284;2022-08-06T12:41:33;20.40;98.70
52159;DHT22;38145;53.182;6.284;2022-08-06T12:44:01;20.20;98.10
52159;DHT22;38145;53.182;6.284;2022-08-06T12:46:28;20.30;98.60
52159;DHT22;38145;53.182;6.284;2022-08-06T12:48:54;20.50;98.40
52159;DHT22;38145;53.182;6.284;2022-08-06T12:51:21;20.70;97.50
52159;DHT22;38145;53.182;6.284;2022-08-06T12:53:50;21.00;98.10
52159;DHT22;38145;53.182;6.284;2022-08-06T12:56:18;21.10;95.70
52159;DHT22;38145;53.182;6.284;2022-08-06T12:58:46;21.10;96.80
52159;DHT22;38145;53.182;6.284;2022-08-06T13:01:16;21.10;98.80
52159;DHT22;38145;53.182;6.284;2022-08-06T13:03:47;21.00;98.20
52159;DHT22;38145;53.182;6.284;2022-08-06T13:06:16;20.90;97.30
52159;DHT22;38145;53.182;6.284;2022-08-06T13:08:46;20.90;99.90
52159;DHT22;38145;53.182;6.284;2022-08-06T13:11:13;21.00;98.50
52159;DHT22;38145;53.182;6.284;2022-08-06T13:13:50;21.00;98.00
52159;DHT22;38145;53.182;6.284;2022-08-06T13:16:18;21.20;97.50
52159;DHT22;38145;53.182;6.284;2022-08-06T13:19:06;21.40;97.60
52159;DHT22;38145;53.182;6.284;2022-08-06T13:21:33;21.50;99.90
52159;DHT22;38145;53.182;6.284;2022-08-06T13:24:03;21.70;98.80
52159;DHT22;38145;53.182;6.284;2022-08-06T13:26:32;21.80;97.50
52159;DHT22;38145;53.182;6.284;2022-08-06T13:29:10;22.00;96.80
52159;DHT22;38145;53.182;6.284;2022-08-06T13:31:38;22.00;96.00
52159;DHT22;38145;53.182;6.284;2022-08-06T13:34:08;21.80;93.50
52159;DHT22;38145;53.182;6.284;2022-08-06T13:36:36;21.70;98.00
52159;DHT22;38145;53.182;6.284;2022-08-06T13:39:22;21.40;98.80
52159;DHT22;38145;53.182;6.284;2022-08-06T13:42:00;21.20;98.10
52159;DHT22;38145;53.182;6.284;2022-08-06T13:44:29;21.00;97.70
52159;DHT22;38145;53.182;6.284;2022-08-06T13:46:56;20.80;99.90
52159;DHT22;38145;53.182;6.284;2022-08-06T13:49:23;20.70;99.90
52159;DHT22;38145;53.182;6.284;2022-08-06T13:51:49;20.40;99.90
52159;DHT22;38145;53.182;6.284;2022-08-06T13:54:17;20.20;99.90
52159;DHT22;38145;53.182;6.284;2022-08-06T13:56:43;20.10;99.90
52159;DHT22;38145;53.182;6.284;2022-08-06T13:59:10;20.10;99.90
52159;DHT22;38145;53.182;6.284;2022-08-06T14:01:36;20.20;99.90
52159;DHT22;38145;53.182;6.284;2022-08-06T14:04:04;20.40;99.90
52159;DHT22;38145;53.182;6.284;2022-08-06T14:06:30;20.30;99.90
52159;DHT22;38145;53.182;6.284;2022-08-06T14:08:57;20.10;99.90
52159;DHT22;38145;53.182;6.284;2022-08-06T14:11:24;20.00;99.90
52159;DHT22;38145;53.182;6.284;2022-08-06T14:13:50;20.00;99.90
52159;DHT22;38145;53.182;6.284;2022-08-06T14:16:18;19.80;99.90
52159;DHT22;38145;53.182;6.284;2022-08-06T14:18:45;19.80;99.90
52159;DHT22;38145;53.182;6.284;2022-08-06T14:21:11;19.90;99.90
52159;DHT22;38145;53.182;6.284;2022-08-06T14:23:38;20.10;99.90
52159;DHT22;38145;53.182;6.284;2022-08-06T14:26:05;20.20;99.90
52159;DHT22;38145;53.182;6.284;2022-08-06T14:28:34;20.40;99.90
52159;DHT22;38145;53.182;6.284;2022-08-06T14:31:01;20.40;99.90
52159;DHT22;38145;53.182;6.284;2022-08-06T14:33:27;20.50;99.90
52159;DHT22;38145;53.182;6.284;2022-08-06T14:35:53;20.40;99.90
52159;DHT22;38145;53.182;6.284;2022-08-06T14:38:21;20.60;99.90
52159;DHT22;38145;53.182;6.284;2022-08-06T14:40:48;20.70;99.90
52159;DHT22;38145;53.182;6.284;2022-08-06T14:43:33;20.80;99.90
52159;DHT22;38145;53.182;6.284;2022-08-06T14:46:18;20.50;99.90
52159;DHT22;38145;53.182;6.284;2022-08-06T14:48:44;20.20;99.90
52159;DHT22;38145;53.182;6.284;2022-08-06T14:51:10;20.10;99.90
52159;DHT22;38145;53.182;6.284;2022-08-06T14:53:37;20.10;99.90
52159;DHT22;38145;53.182;6.284;2022-08-06T14:56:03;20.10;99.90
52159;DHT22;38145;53.182;6.284;2022-08-06T14:58:29;20.10;99.90
52159;DHT22;38145;53.182;6.284;2022-08-06T15:00:56;20.00;99.90
52159;DHT22;38145;53.182;6.284;2022-08-06T15:03:22;20.20;99.90
52159;DHT22;38145;53.182;6.284;2022-08-06T15:05:49;20.30;99.90
52159;DHT22;38145;53.182;6.284;2022-08-06T15:08:16;20.30;99.90
52159;DHT22;38145;53.182;6.284;2022-08-06T15:10:42;20.30;99.90
52159;DHT22;38145;53.182;6.284;2022-08-06T15:13:09;20.30;99.90
52159;DHT22;38145;53.182;6.284;2022-08-06T15:15:36;20.20;99.90
52159;DHT22;38145;53.182;6.284;2022-08-06T15:18:02;20.20;99.90
52159;DHT22;38145;53.182;6.284;2022-08-06T15:20:29;20.20;99.90
52159;DHT22;38145;53.182;6.284;2022-08-06T15:22:57;20.10;99.90
52159;DHT22;38145;53.182;6.284;2022-08-06T15:25:23;20.00;99.90
52159;DHT22;38145;53.182;6.284;2022-08-06T15:27:50;19.90;99.90
52159;DHT22;38145;53.182;6.284;2022-08-06T15:30:19;19.80;99.90
52159;DHT22;38145;53.182;6.284;2022-08-06T15:32:45;19.80;99.90
52159;DHT22;38145;53.182;6.284;2022-08-06T15:35:13;19.90;99.90
52159;DHT22;38145;53.182;6.284;2022-08-06T15:37:40;20.00;99.90
52159;DHT22;38145;53.182;6.284;2022-08-06T15:40:07;20.00;99.90
52159;DHT22;38145;53.182;6.284;2022-08-06T15:42:35;20.10;99.90
52159;DHT22;38145;53.182;6.284;2022-08-06T15:45:03;20.10;99.90
52159;DHT22;38145;53.182;6.284;2022-08-06T15:47:29;20.20;99.90
52159;DHT22;38145;53.182;6.284;2022-08-06T15:49:57;20.20;99.90
52159;DHT22;38145;53.182;6.284;2022-08-06T15:52:24;20.10;99.90
52159;DHT22;38145;53.182;6.284;2022-08-06T15:54:51;20.00;99.90
52159;DHT22;38145;53.182;6.284;2022-08-06T15:57:18;19.90;99.90
52159;DHT22;38145;53.182;6.284;2022-08-06T15:59:48;19.80;99.90
52159;DHT22;38145;53.182;6.284;2022-08-06T16:02:14;19.90;99.90
52159;DHT22;38145;53.182;6.284;2022-08-06T16:04:41;19.90;99.90
52159;DHT22;38145;53.182;6.284;2022-08-06T16:07:07;19.80;99.90
52159;DHT22;38145;53.182;6.284;2022-08-06T16:09:35;19.80;99.90